sensor_id;sensor_type;location;lat;lon;timestamp;P1;durP1;ratioP1;P2;durP2;ratioP2
4001;SDS011;2015;48.670;9.060;2023-03-15T00:01:56;4.60;;;4.13;;
4001;SDS011;2015;48.670;9.060;2023-03-15T00:04:29;6.43;;;4.80;;
4001;SDS011;2015;48.670;9.060;2023-03-15T00:07:02;4.27;;;3.97;;
4001;SDS011;2015;48.670;9.060;2023-03-15T00:09:34;5.90;;;5.30;;
4001;SDS011;2015;48.670;9.060;2023-03-15T00:12:06;4.57;;;4.17;;
4001;SDS011;2015;48.670;9.060;2023-03-15T00:14:38;5.50;;;5.00;;
4001;SDS011;2015;48.670;9.060;2023-03-15T00:17:09;5.70;;;4.90;;
4001;SDS011;2015;48.670;9.060;2023-03-15T00:19:42;6.10;;;5.30;;
4001;SDS011;2015;48.670;9.060;2023-03-15T00:22:13;25.13;;;6.67;;
4001;SDS011;2015;48.670;9.060;2023-03-15T00:24:45;7.80;;;6.07;;
4001;SDS011;2015;48.670;9.060;2023-03-15T00:27:17;10.43;;;5.50;;
4001;SDS011;2015;48.670;9.060;2023-03-15T00:29:49;12.93;;;6.63;;
4001;SDS011;2015;48.670;9.060;2023-03-15T00:32:20;10.93;;;6.50;;
4001;SDS011;2015;48.670;9.060;2023-03-15T00:34:52;5.97;;;5.33;;
4001;SDS011;2015;48.670;9.060;2023-03-15T00:37:24;7.27;;;5.60;;
4001;SDS011;2015;48.670;9.060;2023-03-15T00:39:56;6.80;;;6.20;;
4001;SDS011;2015;48.670;9.060;2023-03-15T00:42:28;11.50;;;5.70;;
4001;SDS011;2015;48.670;9.060;2023-03-15T00:45:00;11.73;;;5.17;;
4001;SDS011;2015;48.670;9.060;2023-03-15T00:47:32;10.63;;;4.93;;
4001;SDS011;2015;48.670;9.060;2023-03-15T00:50:04;6.10;;;5.50;;
4001;SDS011;2015;48.670;9.060;2023-03-15T00:52:36;8.10;;;5.33;;
4001;SDS011;2015;48.670;9.060;2023-03-15T00:55:09;7.37;;;4.87;;
4001;SDS011;2015;48.670;9.060;2023-03-15T00:57:46;5.37;;;4.53;;
4001;SDS011;2015;48.670;9.060;2023-03-15T01:00:21;6.07;;;5.13;;
4001;SDS011;2015;48.670;9.060;2023-03-15T01:02:55;5.17;;;4.50;;
4001;SDS011;2015;48.670;9.060;2023-03-15T01:05:27;8.33;;;3.97;;
4001;SDS011;2015;48.670;9.060;2023-03-15T01:07:58;11.07;;;5.53;;
4001;SDS011;2015;48.670;9.060;2023-03-15T01:10:33;6.43;;;4.23;;
4001;SDS011;2015;48.670;9.060;2023-03-15T01:13:06;5.67;;;4.60;;
4001;SDS011;2015;48.670;9.060;2023-03-15T01:15:37;7.10;;;4.80;;
4001;SDS011;2015;48.670;9.060;2023-03-15T01:18:09;5.80;;;5.30;;
4001;SDS011;2015;48.670;9.060;2023-03-15T01:20:42;6.37;;;4.10;;
4001;SDS011;2015;48.670;9.060;2023-03-15T01:23:15;7.33;;;4.70;;
4001;SDS011;2015;48.670;9.060;2023-03-15T01:25:47;6.47;;;3.83;;
4001;SDS011;2015;48.670;9.060;2023-03-15T01:28:19;8.10;;;4.70;;
4001;SDS011;2015;48.670;9.060;2023-03-15T01:30:51;4.73;;;3.27;;
4001;SDS011;2015;48.670;9.060;2023-03-15T01:33:23;10.13;;;4.83;;
4001;SDS011;2015;48.670;9.060;2023-03-15T01:36:13;9.37;;;4.10;;
4001;SDS011;2015;48.670;9.060;2023-03-15T01:38:45;4.93;;;3.50;;
4001;SDS011;2015;48.670;9.060;2023-03-15T01:41:17;6.23;;;4.47;;
4001;SDS011;2015;48.670;9.060;2023-03-15T01:43:50;5.22;;;3.30;;
4001;SDS011;2015;48.670;9.060;2023-03-15T01:46:26;3.00;;;2.50;;
4001;SDS011;2015;48.670;9.060;2023-03-15T01:52:09;3.07;;;2.60;;
4001;SDS011;2015;48.670;9.060;2023-03-15T01:54:51;9.87;;;3.23;;
4001;SDS011;2015;48.670;9.060;2023-03-15T01:57:31;10.83;;;3.43;;
4001;SDS011;2015;48.670;9.060;2023-03-15T02:00:11;5.60;;;2.93;;
4001;SDS011;2015;48.670;9.060;2023-03-15T02:02:56;3.83;;;2.70;;
4001;SDS011;2015;48.670;9.060;2023-03-15T02:05:32;6.23;;;3.53;;
4001;SDS011;2015;48.670;9.060;2023-03-15T02:08:08;11.97;;;3.07;;
4001;SDS011;2015;48.670;9.060;2023-03-15T02:10:42;3.73;;;3.43;;
4001;SDS011;2015;48.670;9.060;2023-03-15T02:13:20;9.13;;;3.50;;
4001;SDS011;2015;48.670;9.060;2023-03-15T02:15:53;3.00;;;2.80;;
4001;SDS011;2015;48.670;9.060;2023-03-15T02:18:25;5.77;;;2.90;;
4001;SDS011;2015;48.670;9.060;2023-03-15T02:21:00;6.50;;;3.80;;
4001;SDS011;2015;48.670;9.060;2023-03-15T02:23:41;3.00;;;2.80;;
4001;SDS011;2015;48.670;9.060;2023-03-15T02:28:55;3.13;;;2.43;;
4001;SDS011;2015;48.670;9.060;2023-03-15T02:31:28;5.10;;;2.97;;
4001;SDS011;2015;48.670;9.060;2023-03-15T02:34:07;2.53;;;2.43;;
4001;SDS011;2015;48.670;9.060;2023-03-15T02:36:39;3.40;;;2.30;;
4001;SDS011;2015;48.670;9.060;2023-03-15T02:39:18;3.95;;;2.33;;
4001;SDS011;2015;48.670;9.060;2023-03-15T02:41:53;3.20;;;2.80;;
4001;SDS011;2015;48.670;9.060;2023-03-15T02:44:36;4.00;;;2.57;;
4001;SDS011;2015;48.670;9.060;2023-03-15T02:47:25;7.23;;;2.50;;
4001;SDS011;2015;48.670;9.060;2023-03-15T02:50:00;2.43;;;2.23;;
4001;SDS011;2015;48.670;9.060;2023-03-15T02:52:32;3.90;;;2.70;;
4001;SDS011;2015;48.670;9.060;2023-03-15T02:55:04;3.10;;;2.77;;
4001;SDS011;2015;48.670;9.060;2023-03-15T02:57:36;2.73;;;2.53;;
4001;SDS011;2015;48.670;9.060;2023-03-15T03:00:09;3.17;;;2.70;;
4001;SDS011;2015;48.670;9.060;2023-03-15T03:02:45;2.60;;;2.40;;
4001;SDS011;2015;48.670;9.060;2023-03-15T03:05:18;4.63;;;2.40;;
4001;SDS011;2015;48.670;9.060;2023-03-15T03:07:50;6.57;;;2.70;;
4001;SDS011;2015;48.670;9.060;2023-03-15T03:10:22;3.07;;;2.77;;
4001;SDS011;2015;48.670;9.060;2023-03-15T03:12:54;6.07;;;2.90;;
4001;SDS011;2015;48.670;9.060;2023-03-15T03:15:26;5.97;;;3.33;;
4001;SDS011;2015;48.670;9.060;2023-03-15T03:17:57;2.87;;;2.77;;
4001;SDS011;2015;48.670;9.060;2023-03-15T03:20:29;4.80;;;2.20;;
4001;SDS011;2015;48.670;9.060;2023-03-15T03:23:01;8.03;;;2.97;;
4001;SDS011;2015;48.670;9.060;2023-03-15T03:25:36;5.20;;;3.23;;
4001;SDS011;2015;48.670;9.060;2023-03-15T03:28:08;5.87;;;3.40;;
4001;SDS011;2015;48.670;9.060;2023-03-15T03:30:39;3.90;;;3.60;;
4001;SDS011;2015;48.670;9.060;2023-03-15T03:33:11;4.15;;;3.80;;
4001;SDS011;2015;48.670;9.060;2023-03-15T03:35:43;6.53;;;3.93;;
4001;SDS011;2015;48.670;9.060;2023-03-15T03:38:15;4.03;;;3.50;;
4001;SDS011;2015;48.670;9.060;2023-03-15T03:40:47;5.10;;;3.17;;
4001;SDS011;2015;48.670;9.060;2023-03-15T03:43:18;3.77;;;3.30;;
4001;SDS011;2015;48.670;9.060;2023-03-15T03:45:50;8.93;;;3.37;;
4001;SDS011;2015;48.670;9.060;2023-03-15T03:48:22;8.13;;;3.50;;
4001;SDS011;2015;48.670;9.060;2023-03-15T03:50:54;4.50;;;3.87;;
4001;SDS011;2015;48.670;9.060;2023-03-15T03:53:26;3.63;;;3.33;;
4001;SDS011;2015;48.670;9.060;2023-03-15T03:55:57;5.33;;;3.70;;
4001;SDS011;2015;48.670;9.060;2023-03-15T03:58:29;3.40;;;3.20;;
4001;SDS011;2015;48.670;9.060;2023-03-15T04:01:01;19.27;;;4.37;;
4001;SDS011;2015;48.670;9.060;2023-03-15T04:03:34;4.20;;;3.07;;
4001;SDS011;2015;48.670;9.060;2023-03-15T04:06:05;4.23;;;3.67;;
4001;SDS011;2015;48.670;9.060;2023-03-15T04:08:37;4.67;;;4.27;;
4001;SDS011;2015;48.670;9.060;2023-03-15T04:11:11;3.77;;;3.47;;
4001;SDS011;2015;48.670;9.060;2023-03-15T04:13:47;3.53;;;3.23;;
4001;SDS011;2015;48.670;9.060;2023-03-15T04:16:19;5.47;;;4.97;;
4001;SDS011;2015;48.670;9.060;2023-03-15T04:18:51;7.07;;;3.33;;
4001;SDS011;2015;48.670;9.060;2023-03-15T04:21:26;5.00;;;4.37;;
4001;SDS011;2015;48.670;9.060;2023-03-15T04:24:02;6.73;;;3.73;;
4001;SDS011;2015;48.670;9.060;2023-03-15T04:26:33;7.97;;;4.10;;
4001;SDS011;2015;48.670;9.060;2023-03-15T04:29:05;4.40;;;3.78;;
4001;SDS011;2015;48.670;9.060;2023-03-15T04:31:37;4.00;;;3.70;;
4001;SDS011;2015;48.670;9.060;2023-03-15T04:34:09;9.03;;;4.13;;
4001;SDS011;2015;48.670;9.060;2023-03-15T04:36:41;3.93;;;3.73;;
4001;SDS011;2015;48.670;9.060;2023-03-15T04:39:13;4.27;;;3.60;;
4001;SDS011;2015;48.670;9.060;2023-03-15T04:41:45;4.47;;;3.70;;
4001;SDS011;2015;48.670;9.060;2023-03-15T04:44:16;4.80;;;4.03;;
4001;SDS011;2015;48.670;9.060;2023-03-15T04:46:48;5.77;;;4.30;;
4001;SDS011;2015;48.670;9.060;2023-03-15T04:49:22;3.83;;;3.63;;
4001;SDS011;2015;48.670;9.060;2023-03-15T04:51:54;4.83;;;4.17;;
4001;SDS011;2015;48.670;9.060;2023-03-15T04:54:26;4.37;;;4.03;;
4001;SDS011;2015;48.670;9.060;2023-03-15T04:56:58;9.47;;;4.63;;
4001;SDS011;2015;48.670;9.060;2023-03-15T04:59:29;4.63;;;4.07;;
4001;SDS011;2015;48.670;9.060;2023-03-15T05:02:01;7.78;;;4.20;;
4001;SDS011;2015;48.670;9.060;2023-03-15T05:04:34;5.00;;;4.50;;
4001;SDS011;2015;48.670;9.060;2023-03-15T05:07:06;13.33;;;4.90;;
4001;SDS011;2015;48.670;9.060;2023-03-15T05:09:38;7.00;;;4.27;;
4001;SDS011;2015;48.670;9.060;2023-03-15T05:12:11;5.00;;;4.60;;
4001;SDS011;2015;48.670;9.060;2023-03-15T05:14:43;7.90;;;4.90;;
4001;SDS011;2015;48.670;9.060;2023-03-15T05:17:15;6.73;;;5.37;;
4001;SDS011;2015;48.670;9.060;2023-03-15T05:19:49;7.10;;;4.70;;
4001;SDS011;2015;48.670;9.060;2023-03-15T05:22:22;11.97;;;5.40;;
4001;SDS011;2015;48.670;9.060;2023-03-15T05:24:55;11.75;;;6.20;;
4001;SDS011;2015;48.670;9.060;2023-03-15T05:27:27;13.57;;;6.60;;
4001;SDS011;2015;48.670;9.060;2023-03-15T05:29:59;10.43;;;6.20;;
4001;SDS011;2015;48.670;9.060;2023-03-15T05:32:34;6.93;;;5.70;;
4001;SDS011;2015;48.670;9.060;2023-03-15T05:35:09;11.87;;;6.73;;
4001;SDS011;2015;48.670;9.060;2023-03-15T05:37:42;13.90;;;7.70;;
4001;SDS011;2015;48.670;9.060;2023-03-15T05:40:13;8.47;;;6.50;;
4001;SDS011;2015;48.670;9.060;2023-03-15T05:42:45;7.53;;;4.70;;
4001;SDS011;2015;48.670;9.060;2023-03-15T05:45:17;7.93;;;5.97;;
4001;SDS011;2015;48.670;9.060;2023-03-15T05:47:49;6.33;;;4.90;;
4001;SDS011;2015;48.670;9.060;2023-03-15T05:50:20;9.60;;;5.33;;
4001;SDS011;2015;48.670;9.060;2023-03-15T05:52:53;11.50;;;7.30;;
4001;SDS011;2015;48.670;9.060;2023-03-15T05:55:26;6.40;;;5.37;;
4001;SDS011;2015;48.670;9.060;2023-03-15T05:57:58;9.50;;;5.93;;
4001;SDS011;2015;48.670;9.060;2023-03-15T06:00:30;7.13;;;6.53;;
4001;SDS011;2015;48.670;9.060;2023-03-15T06:03:02;7.37;;;5.90;;
4001;SDS011;2015;48.670;9.060;2023-03-15T06:05:34;9.47;;;7.00;;
4001;SDS011;2015;48.670;9.060;2023-03-15T06:08:05;9.80;;;6.40;;
4001;SDS011;2015;48.670;9.060;2023-03-15T06:10:37;10.50;;;8.13;;
4001;SDS011;2015;48.670;9.060;2023-03-15T06:13:09;10.30;;;6.47;;
4001;SDS011;2015;48.670;9.060;2023-03-15T06:15:41;12.40;;;6.83;;
4001;SDS011;2015;48.670;9.060;2023-03-15T06:18:13;12.30;;;6.70;;
4001;SDS011;2015;48.670;9.060;2023-03-15T06:20:47;9.03;;;8.20;;
4001;SDS011;2015;48.670;9.060;2023-03-15T06:23:19;12.63;;;6.47;;
4001;SDS011;2015;48.670;9.060;2023-03-15T06:25:51;13.40;;;6.90;;
4001;SDS011;2015;48.670;9.060;2023-03-15T06:28:22;11.17;;;6.33;;
4001;SDS011;2015;48.670;9.060;2023-03-15T06:30:54;10.90;;;7.03;;
4001;SDS011;2015;48.670;9.060;2023-03-15T06:33:26;7.10;;;6.00;;
4001;SDS011;2015;48.670;9.060;2023-03-15T06:35:58;9.17;;;6.77;;
4001;SDS011;2015;48.670;9.060;2023-03-15T06:38:30;26.83;;;14.23;;
4001;SDS011;2015;48.670;9.060;2023-03-15T06:41:03;7.60;;;6.90;;
4001;SDS011;2015;48.670;9.060;2023-03-15T06:43:35;12.37;;;8.50;;
4001;SDS011;2015;48.670;9.060;2023-03-15T06:46:07;12.97;;;7.60;;
4001;SDS011;2015;48.670;9.060;2023-03-15T06:48:38;11.80;;;7.83;;
4001;SDS011;2015;48.670;9.060;2023-03-15T06:51:10;13.50;;;7.67;;
4001;SDS011;2015;48.670;9.060;2023-03-15T06:53:42;16.13;;;7.57;;
4001;SDS011;2015;48.670;9.060;2023-03-15T06:56:14;10.00;;;6.77;;
4001;SDS011;2015;48.670;9.060;2023-03-15T06:58:46;10.83;;;7.60;;
4001;SDS011;2015;48.670;9.060;2023-03-15T07:01:17;11.03;;;7.80;;
4001;SDS011;2015;48.670;9.060;2023-03-15T07:03:49;8.10;;;6.13;;
4001;SDS011;2015;48.670;9.060;2023-03-15T07:06:21;13.37;;;7.70;;
4001;SDS011;2015;48.670;9.060;2023-03-15T07:08:53;8.00;;;7.27;;
4001;SDS011;2015;48.670;9.060;2023-03-15T07:11:25;11.83;;;6.60;;
4001;SDS011;2015;48.670;9.060;2023-03-15T07:13:56;11.07;;;6.40;;
4001;SDS011;2015;48.670;9.060;2023-03-15T07:16:28;7.40;;;6.80;;
4001;SDS011;2015;48.670;9.060;2023-03-15T07:19:00;8.10;;;7.33;;
4001;SDS011;2015;48.670;9.060;2023-03-15T07:21:32;11.27;;;8.53;;
4001;SDS011;2015;48.670;9.060;2023-03-15T07:24:04;8.90;;;5.93;;
4001;SDS011;2015;48.670;9.060;2023-03-15T07:26:36;9.80;;;5.80;;
4001;SDS011;2015;48.670;9.060;2023-03-15T07:29:08;7.70;;;4.93;;
4001;SDS011;2015;48.670;9.060;2023-03-15T07:31:39;6.20;;;5.37;;
4001;SDS011;2015;48.670;9.060;2023-03-15T07:34:11;14.00;;;5.17;;
4001;SDS011;2015;48.670;9.060;2023-03-15T07:36:43;5.57;;;4.90;;
4001;SDS011;2015;48.670;9.060;2023-03-15T07:39:15;10.90;;;5.60;;
4001;SDS011;2015;48.670;9.060;2023-03-15T07:41:46;5.47;;;5.00;;
4001;SDS011;2015;48.670;9.060;2023-03-15T07:44:18;5.67;;;4.33;;
4001;SDS011;2015;48.670;9.060;2023-03-15T07:46:50;7.30;;;5.00;;
4001;SDS011;2015;48.670;9.060;2023-03-15T07:49:22;7.77;;;4.67;;
4001;SDS011;2015;48.670;9.060;2023-03-15T07:51:54;3.70;;;3.50;;
4001;SDS011;2015;48.670;9.060;2023-03-15T07:54:26;5.40;;;4.93;;
4001;SDS011;2015;48.670;9.060;2023-03-15T07:56:59;7.40;;;6.53;;
4001;SDS011;2015;48.670;9.060;2023-03-15T07:59:31;9.17;;;5.47;;
4001;SDS011;2015;48.670;9.060;2023-03-15T08:02:03;10.80;;;5.40;;
4001;SDS011;2015;48.670;9.060;2023-03-15T08:04:35;6.33;;;4.47;;
4001;SDS011;2015;48.670;9.060;2023-03-15T08:07:07;5.73;;;3.03;;
4001;SDS011;2015;48.670;9.060;2023-03-15T08:09:39;5.33;;;4.30;;
4001;SDS011;2015;48.670;9.060;2023-03-15T08:12:10;5.50;;;4.70;;
4001;SDS011;2015;48.670;9.060;2023-03-15T08:14:42;4.53;;;3.97;;
4001;SDS011;2015;48.670;9.060;2023-03-15T08:17:14;4.30;;;4.00;;
4001;SDS011;2015;48.670;9.060;2023-03-15T08:19:46;4.63;;;3.90;;
4001;SDS011;2015;48.670;9.060;2023-03-15T08:22:18;6.57;;;5.97;;
4001;SDS011;2015;48.670;9.060;2023-03-15T08:24:49;3.47;;;3.23;;
4001;SDS011;2015;48.670;9.060;2023-03-15T08:27:23;7.40;;;3.80;;
4001;SDS011;2015;48.670;9.060;2023-03-15T08:29:55;4.47;;;4.17;;
4001;SDS011;2015;48.670;9.060;2023-03-15T08:32:27;7.63;;;4.60;;
4001;SDS011;2015;48.670;9.060;2023-03-15T08:34:59;4.87;;;3.63;;
4001;SDS011;2015;48.670;9.060;2023-03-15T08:37:31;6.57;;;3.90;;
4001;SDS011;2015;48.670;9.060;2023-03-15T08:40:03;4.80;;;4.30;;
4001;SDS011;2015;48.670;9.060;2023-03-15T08:42:41;5.40;;;3.23;;
4001;SDS011;2015;48.670;9.060;2023-03-15T08:45:13;10.10;;;3.87;;
4001;SDS011;2015;48.670;9.060;2023-03-15T08:47:46;4.00;;;3.10;;
4001;SDS011;2015;48.670;9.060;2023-03-15T08:50:17;3.90;;;3.60;;
4001;SDS011;2015;48.670;9.060;2023-03-15T08:52:49;3.40;;;3.10;;
4001;SDS011;2015;48.670;9.060;2023-03-15T08:55:21;4.80;;;3.53;;
4001;SDS011;2015;48.670;9.060;2023-03-15T08:57:53;4.87;;;4.03;;
4001;SDS011;2015;48.670;9.060;2023-03-15T09:00:25;3.30;;;3.10;;
4001;SDS011;2015;48.670;9.060;2023-03-15T09:02:58;3.60;;;3.10;;
4001;SDS011;2015;48.670;9.060;2023-03-15T09:05:30;3.20;;;3.00;;
4001;SDS011;2015;48.670;9.060;2023-03-15T09:08:02;3.87;;;3.53;;
4001;SDS011;2015;48.670;9.060;2023-03-15T09:10:34;3.57;;;3.27;;
4001;SDS011;2015;48.670;9.060;2023-03-15T09:13:06;4.07;;;3.20;;
4001;SDS011;2015;48.670;9.060;2023-03-15T09:15:38;4.13;;;3.83;;
4001;SDS011;2015;48.670;9.060;2023-03-15T09:18:10;7.70;;;3.43;;
4001;SDS011;2015;48.670;9.060;2023-03-15T09:20:42;6.03;;;4.50;;
4001;SDS011;2015;48.670;9.060;2023-03-15T09:23:14;4.67;;;4.13;;
4001;SDS011;2015;48.670;9.060;2023-03-15T09:25:46;8.83;;;5.13;;
4001;SDS011;2015;48.670;9.060;2023-03-15T09:28:18;16.67;;;15.77;;
4001;SDS011;2015;48.670;9.060;2023-03-15T09:30:50;4.27;;;3.87;;
4001;SDS011;2015;48.670;9.060;2023-03-15T09:33:23;4.33;;;3.40;;
4001;SDS011;2015;48.670;9.060;2023-03-15T09:35:54;8.50;;;3.30;;
4001;SDS011;2015;48.670;9.060;2023-03-15T09:38:26;10.73;;;3.53;;
4001;SDS011;2015;48.670;9.060;2023-03-15T09:40:58;3.60;;;3.30;;
4001;SDS011;2015;48.670;9.060;2023-03-15T09:46:31;3.07;;;2.77;;
4001;SDS011;2015;48.670;9.060;2023-03-15T09:52:29;2.70;;;2.50;;
4001;SDS011;2015;48.670;9.060;2023-03-15T09:55:18;3.43;;;3.13;;
4001;SDS011;2015;48.670;9.060;2023-03-15T09:57:59;5.38;;;2.60;;
4001;SDS011;2015;48.670;9.060;2023-03-15T10:00:53;3.27;;;2.80;;
4001;SDS011;2015;48.670;9.060;2023-03-15T10:03:45;4.60;;;2.83;;
4001;SDS011;2015;48.670;9.060;2023-03-15T10:06:23;6.93;;;2.83;;
4001;SDS011;2015;48.670;9.060;2023-03-15T10:09:00;2.87;;;2.67;;
4001;SDS011;2015;48.670;9.060;2023-03-15T10:20:35;3.00;;;2.30;;
4001;SDS011;2015;48.670;9.060;2023-03-15T10:23:22;5.37;;;2.33;;
4001;SDS011;2015;48.670;9.060;2023-03-15T10:25:58;2.30;;;2.10;;
4001;SDS011;2015;48.670;9.060;2023-03-15T10:28:31;2.30;;;2.20;;
4001;SDS011;2015;48.670;9.060;2023-03-15T10:31:11;10.93;;;2.33;;
4001;SDS011;2015;48.670;9.060;2023-03-15T10:34:02;2.00;;;1.90;;
4001;SDS011;2015;48.670;9.060;2023-03-15T10:36:34;2.93;;;2.73;;
4001;SDS011;2015;48.670;9.060;2023-03-15T10:39:07;2.60;;;2.40;;
4001;SDS011;2015;48.670;9.060;2023-03-15T10:41:42;4.20;;;2.53;;
4001;SDS011;2015;48.670;9.060;2023-03-15T10:44:22;9.57;;;2.00;;
4001;SDS011;2015;48.670;9.060;2023-03-15T10:47:00;2.00;;;1.90;;
4001;SDS011;2015;48.670;9.060;2023-03-15T10:49:56;3.57;;;2.40;;
4001;SDS011;2015;48.670;9.060;2023-03-15T10:52:36;2.40;;;1.65;;
4001;SDS011;2015;48.670;9.060;2023-03-15T10:55:11;1.63;;;1.47;;
4001;SDS011;2015;48.670;9.060;2023-03-15T10:57:51;3.60;;;1.57;;
4001;SDS011;2015;48.670;9.060;2023-03-15T11:00:31;2.50;;;1.50;;
4001;SDS011;2015;48.670;9.060;2023-03-15T11:03:14;3.57;;;1.73;;
4001;SDS011;2015;48.670;9.060;2023-03-15T11:05:52;2.23;;;1.70;;
4001;SDS011;2015;48.670;9.060;2023-03-15T11:08:47;1.80;;;1.60;;
4001;SDS011;2015;48.670;9.060;2023-03-15T11:11:18;3.97;;;1.90;;
4001;SDS011;2015;48.670;9.060;2023-03-15T11:13:54;8.87;;;2.43;;
4001;SDS011;2015;48.670;9.060;2023-03-15T11:16:34;3.73;;;2.03;;
4001;SDS011;2015;48.670;9.060;2023-03-15T11:19:21;3.20;;;2.00;;
4001;SDS011;2015;48.670;9.060;2023-03-15T11:21:56;1.87;;;1.63;;
4001;SDS011;2015;48.670;9.060;2023-03-15T11:24:30;2.10;;;1.50;;
4001;SDS011;2015;48.670;9.060;2023-03-15T11:27:08;4.10;;;1.93;;
4001;SDS011;2015;48.670;9.060;2023-03-15T11:29:47;3.50;;;3.30;;
4001;SDS011;2015;48.670;9.060;2023-03-15T11:32:27;2.60;;;1.73;;
4001;SDS011;2015;48.670;9.060;2023-03-15T11:35:18;3.40;;;1.73;;
4001;SDS011;2015;48.670;9.060;2023-03-15T11:37:55;4.43;;;2.07;;
4001;SDS011;2015;48.670;9.060;2023-03-15T11:40:46;1.73;;;1.63;;
4001;SDS011;2015;48.670;9.060;2023-03-15T11:43:25;2.90;;;1.40;;
4001;SDS011;2015;48.670;9.060;2023-03-15T11:46:19;1.58;;;1.40;;
4001;SDS011;2015;48.670;9.060;2023-03-15T11:49:01;3.17;;;1.97;;
4001;SDS011;2015;48.670;9.060;2023-03-15T11:51:45;1.37;;;1.27;;
4001;SDS011;2015;48.670;9.060;2023-03-15T11:54:17;1.87;;;1.03;;
4001;SDS011;2015;48.670;9.060;2023-03-15T11:56:52;2.03;;;1.67;;
4001;SDS011;2015;48.670;9.060;2023-03-15T11:59:30;2.00;;;1.40;;
4001;SDS011;2015;48.670;9.060;2023-03-15T12:04:44;1.57;;;1.30;;
4001;SDS011;2015;48.670;9.060;2023-03-15T12:07:27;2.20;;;1.50;;
4001;SDS011;2015;48.670;9.060;2023-03-15T12:12:33;1.87;;;1.07;;
4001;SDS011;2015;48.670;9.060;2023-03-15T12:31:08;2.30;;;1.40;;
4001;SDS011;2015;48.670;9.060;2023-03-15T12:33:46;1.40;;;1.10;;
4001;SDS011;2015;48.670;9.060;2023-03-15T12:41:47;2.65;;;1.30;;
4001;SDS011;2015;48.670;9.060;2023-03-15T12:47:03;3.83;;;1.83;;
4001;SDS011;2015;48.670;9.060;2023-03-15T12:49:43;1.70;;;1.60;;
4001;SDS011;2015;48.670;9.060;2023-03-15T12:57:49;2.10;;;1.93;;
4001;SDS011;2015;48.670;9.060;2023-03-15T13:00:25;1.40;;;1.30;;
4001;SDS011;2015;48.670;9.060;2023-03-15T13:03:12;6.33;;;1.53;;
4001;SDS011;2015;48.670;9.060;2023-03-15T13:26:01;1.87;;;1.77;;
4001;SDS011;2015;48.670;9.060;2023-03-15T13:28:49;2.90;;;2.03;;
4001;SDS011;2015;48.670;9.060;2023-03-15T13:31:29;2.50;;;1.90;;
4001;SDS011;2015;48.670;9.060;2023-03-15T13:34:12;2.67;;;2.47;;
4001;SDS011;2015;48.670;9.060;2023-03-15T13:36:47;2.00;;;1.63;;
4001;SDS011;2015;48.670;9.060;2023-03-15T13:39:27;2.10;;;1.90;;
4001;SDS011;2015;48.670;9.060;2023-03-15T13:42:02;2.00;;;1.90;;
4001;SDS011;2015;48.670;9.060;2023-03-15T13:44:34;2.73;;;2.07;;
4001;SDS011;2015;48.670;9.060;2023-03-15T13:47:06;2.23;;;1.93;;
4001;SDS011;2015;48.670;9.060;2023-03-15T13:49:38;5.87;;;1.70;;
4001;SDS011;2015;48.670;9.060;2023-03-15T13:52:10;3.93;;;1.90;;
4001;SDS011;2015;48.670;9.060;2023-03-15T13:54:45;2.60;;;2.10;;
4001;SDS011;2015;48.670;9.060;2023-03-15T13:57:17;2.80;;;2.33;;
4001;SDS011;2015;48.670;9.060;2023-03-15T13:59:57;2.70;;;2.50;;
4001;SDS011;2015;48.670;9.060;2023-03-15T14:02:35;2.47;;;2.30;;
4001;SDS011;2015;48.670;9.060;2023-03-15T14:05:18;2.70;;;2.50;;
4001;SDS011;2015;48.670;9.060;2023-03-15T14:08:05;3.10;;;2.80;;
4001;SDS011;2015;48.670;9.060;2023-03-15T14:10:55;3.10;;;2.60;;
4001;SDS011;2015;48.670;9.060;2023-03-15T14:13:33;3.30;;;3.00;;
4001;SDS011;2015;48.670;9.060;2023-03-15T14:16:06;2.77;;;2.37;;
4001;SDS011;2015;48.670;9.060;2023-03-15T14:18:44;5.07;;;3.50;;
4001;SDS011;2015;48.670;9.060;2023-03-15T14:21:18;2.80;;;2.60;;
4001;SDS011;2015;48.670;9.060;2023-03-15T14:24:03;3.10;;;2.90;;
4001;SDS011;2015;48.670;9.060;2023-03-15T14:26:36;2.80;;;2.60;;
4001;SDS011;2015;48.670;9.060;2023-03-15T14:29:16;3.83;;;2.70;;
4001;SDS011;2015;48.670;9.060;2023-03-15T14:31:52;3.30;;;3.00;;
4001;SDS011;2015;48.670;9.060;2023-03-15T14:34:29;5.23;;;3.37;;
4001;SDS011;2015;48.670;9.060;2023-03-15T14:37:07;6.80;;;3.40;;
4001;SDS011;2015;48.670;9.060;2023-03-15T14:42:48;2.73;;;2.53;;
4001;SDS011;2015;48.670;9.060;2023-03-15T14:45:20;3.10;;;2.80;;
4001;SDS011;2015;48.670;9.060;2023-03-15T14:47:55;5.50;;;3.00;;
4001;SDS011;2015;48.670;9.060;2023-03-15T14:50:32;3.27;;;3.07;;
4001;SDS011;2015;48.670;9.060;2023-03-15T14:53:07;3.40;;;3.20;;
4001;SDS011;2015;48.670;9.060;2023-03-15T14:55:44;4.50;;;2.70;;
4001;SDS011;2015;48.670;9.060;2023-03-15T14:58:16;3.70;;;3.50;;
4001;SDS011;2015;48.670;9.060;2023-03-15T15:00:53;3.13;;;2.93;;
4001;SDS011;2015;48.670;9.060;2023-03-15T15:03:35;4.07;;;2.67;;
4001;SDS011;2015;48.670;9.060;2023-03-15T15:06:10;7.80;;;3.43;;
4001;SDS011;2015;48.670;9.060;2023-03-15T15:08:45;2.90;;;2.70;;
4001;SDS011;2015;48.670;9.060;2023-03-15T15:11:18;3.33;;;3.13;;
4001;SDS011;2015;48.670;9.060;2023-03-15T15:13:50;3.20;;;2.40;;
4001;SDS011;2015;48.670;9.060;2023-03-15T15:16:22;3.43;;;3.23;;
4001;SDS011;2015;48.670;9.060;2023-03-15T15:18:54;4.13;;;3.57;;
4001;SDS011;2015;48.670;9.060;2023-03-15T15:21:29;6.07;;;3.73;;
4001;SDS011;2015;48.670;9.060;2023-03-15T15:24:06;3.93;;;3.63;;
4001;SDS011;2015;48.670;9.060;2023-03-15T15:26:43;4.07;;;3.80;;
4001;SDS011;2015;48.670;9.060;2023-03-15T15:29:17;4.67;;;3.77;;
4001;SDS011;2015;48.670;9.060;2023-03-15T15:31:48;8.53;;;4.07;;
4001;SDS011;2015;48.670;9.060;2023-03-15T15:34:20;5.50;;;5.00;;
4001;SDS011;2015;48.670;9.060;2023-03-15T15:36:52;5.70;;;5.00;;
4001;SDS011;2015;48.670;9.060;2023-03-15T15:39:25;4.73;;;4.47;;
4001;SDS011;2015;48.670;9.060;2023-03-15T15:41:59;3.80;;;3.50;;
4001;SDS011;2015;48.670;9.060;2023-03-15T15:44:31;6.83;;;3.80;;
4001;SDS011;2015;48.670;9.060;2023-03-15T15:47:03;3.97;;;3.30;;
4001;SDS011;2015;48.670;9.060;2023-03-15T15:49:35;3.60;;;3.30;;
4001;SDS011;2015;48.670;9.060;2023-03-15T15:52:12;3.80;;;3.60;;
4001;SDS011;2015;48.670;9.060;2023-03-15T15:54:44;5.60;;;3.70;;
4001;SDS011;2015;48.670;9.060;2023-03-15T15:57:17;4.23;;;3.93;;
4001;SDS011;2015;48.670;9.060;2023-03-15T15:59:52;3.40;;;3.20;;
4001;SDS011;2015;48.670;9.060;2023-03-15T16:02:23;4.67;;;4.37;;
4001;SDS011;2015;48.670;9.060;2023-03-15T16:04:55;3.90;;;3.70;;
4001;SDS011;2015;48.670;9.060;2023-03-15T16:07:27;4.13;;;3.67;;
4001;SDS011;2015;48.670;9.060;2023-03-15T16:09:59;4.33;;;3.93;;
4001;SDS011;2015;48.670;9.060;2023-03-15T16:12:32;3.90;;;3.50;;
4001;SDS011;2015;48.670;9.060;2023-03-15T16:15:04;4.10;;;3.90;;
4001;SDS011;2015;48.670;9.060;2023-03-15T16:17:36;5.77;;;5.37;;
4001;SDS011;2015;48.670;9.060;2023-03-15T16:20:09;5.60;;;5.10;;
4001;SDS011;2015;48.670;9.060;2023-03-15T16:22:43;12.93;;;9.80;;
4001;SDS011;2015;48.670;9.060;2023-03-15T16:25:27;6.33;;;5.87;;
4001;SDS011;2015;48.670;9.060;2023-03-15T16:28:03;4.83;;;4.33;;
4001;SDS011;2015;48.670;9.060;2023-03-15T16:30:37;8.87;;;3.83;;
4001;SDS011;2015;48.670;9.060;2023-03-15T16:33:12;4.70;;;4.30;;
4001;SDS011;2015;48.670;9.060;2023-03-15T16:35:48;3.73;;;3.43;;
4001;SDS011;2015;48.670;9.060;2023-03-15T16:38:29;4.53;;;3.87;;
4001;SDS011;2015;48.670;9.060;2023-03-15T16:41:02;5.20;;;4.80;;
4001;SDS011;2015;48.670;9.060;2023-03-15T16:43:34;4.30;;;3.40;;
4001;SDS011;2015;48.670;9.060;2023-03-15T16:46:15;3.50;;;3.30;;
4001;SDS011;2015;48.670;9.060;2023-03-15T16:48:47;3.33;;;3.00;;
4001;SDS011;2015;48.670;9.060;2023-03-15T16:51:19;3.90;;;3.40;;
4001;SDS011;2015;48.670;9.060;2023-03-15T16:53:51;3.50;;;3.20;;
4001;SDS011;2015;48.670;9.060;2023-03-15T16:56:35;4.80;;;4.60;;
4001;SDS011;2015;48.670;9.060;2023-03-15T16:59:09;3.53;;;3.23;;
4001;SDS011;2015;48.670;9.060;2023-03-15T17:01:44;2.50;;;2.40;;
4001;SDS011;2015;48.670;9.060;2023-03-15T17:04:17;3.20;;;3.00;;
4001;SDS011;2015;48.670;9.060;2023-03-15T17:06:49;3.13;;;2.80;;
4001;SDS011;2015;48.670;9.060;2023-03-15T17:09:26;2.63;;;2.43;;
4001;SDS011;2015;48.670;9.060;2023-03-15T17:11:58;3.20;;;3.00;;
4001;SDS011;2015;48.670;9.060;2023-03-15T17:14:30;4.70;;;3.00;;
4001;SDS011;2015;48.670;9.060;2023-03-15T17:17:07;3.73;;;3.43;;